Time;durP1;ratioP1;P1;durP2;ratioP2;P2;SDS_P1;SDS_P2;PMS_P1;PMS_P2;Temp;Humidity;BMP_temperature;BMP_pressure;BME280_temperature;BME280_humidity;BME280_pressure;Samples;Min_cycle;Max_cycle;Signal;HPM_P1;HPM_P2
2022/09/28 00:01:28;;;;;;;3.67;3.37;;;9.10;99.90;;;;;;5036927;28;20862;-69
2022/09/28 00:03:58;;;;;;;6.10;5.10;;;9.00;99.90;;;;;;5036156;28;20425;-71
2022/09/28 00:06:26;;;;;;;4.70;4.30;;;9.00;1.00;;;;;;5036534;28;20460;-69
2022/09/28 00:08:51;;;;;;;5.40;5.00;;;9.10;99.90;;;;;;5036587;28;20427;-70
2022/09/28 00:11:19;;;;;;;10.20;5.77;;;9.00;1.00;;;;;;5036826;28;20782;-71
2022/09/28 00:13:48;;;;;;;5.50;5.10;;;9.00;99.90;;;;;;5034295;28;20918;-69
2022/09/28 00:16:17;;;;;;;5.60;5.10;;;9.10;1.00;;;;;;5036288;28;20441;-70
2022/09/28 00:18:44;;;;;;;10.53;5.87;;;9.10;1.00;;;;;;5036537;28;20421;-72
2022/09/28 00:21:13;;;;;;;6.40;5.80;;;9.10;1.00;;;;;;5036585;28;20420;-72
2022/09/28 00:24:11;;;;;;;8.33;6.37;;;9.10;1.00;;;;;;5035815;28;20501;-73
2022/09/28 00:26:30;;;;;;;5.90;5.40;;;9.10;1.00;;;;;;5036106;28;20872;-74
2022/09/28 00:28:58;;;;;;;7.50;6.80;;;9.10;1.00;;;;;;5036287;28;20393;-72
2022/09/28 00:31:25;;;;;;;8.60;6.73;;;9.10;1.00;;;;;;5035608;28;20422;-72
2022/09/28 00:33:52;;;;;;;10.00;8.67;;;9.20;1.00;;;;;;5035623;28;20399;-69
2022/09/28 00:36:18;;;;;;;8.40;7.53;;;9.20;1.00;;;;;;5036114;28;20487;-72
2022/09/28 00:38:45;;;;;;;9.93;7.90;;;9.20;1.00;;;;;;5036105;28;20403;-73
2022/09/28 00:41:11;;;;;;;9.40;7.80;;;9.30;1.00;;;;;;5034822;28;20420;-72
2022/09/28 00:43:37;;;;;;;10.53;8.07;;;9.30;1.00;;;;;;5035427;28;20870;-73
2022/09/28 00:46:09;;;;;;;9.27;8.20;;;9.30;1.00;;;;;;5035926;28;20490;-71
2022/09/28 00:48:38;;;;;;;12.10;9.10;;;9.20;1.00;;;;;;5035424;28;20165;-69
2022/09/28 00:51:08;;;;;;;8.03;7.23;;;9.20;1.00;;;;;;5035848;28;20814;-69
2022/09/28 00:53:36;;;;;;;10.37;8.47;;;9.20;1.00;;;;;;5035581;28;20948;-68
2022/09/28 00:56:16;;;;;;;13.97;9.57;;;9.20;1.00;;;;;;5035745;28;20495;-71
2022/09/28 00:58:49;;;;;;;11.37;9.10;;;9.20;1.00;;;;;;5035897;28;20398;-69
2022/09/28 01:01:15;;;;;;;10.97;9.03;;;9.10;1.00;;;;;;5035685;28;20431;-69
2022/09/28 01:03:44;;;;;;;9.03;8.13;;;9.10;1.00;;;;;;5033726;28;20959;-73
2022/09/28 01:06:18;;;;;;;11.70;8.97;;;9.20;1.00;;;;;;5034980;28;20798;-71
2022/09/28 01:08:45;;;;;;;12.23;10.50;;;9.20;1.00;;;;;;5035560;28;20401;-72
2022/09/28 01:11:11;;;;;;;12.17;9.67;;;9.20;1.00;;;;;;5035657;28;20383;-70
2022/09/28 01:13:37;;;;;;;12.30;9.00;;;9.30;1.00;;;;;;5034863;28;20399;-70
2022/09/28 01:16:11;;;;;;;11.80;9.70;;;9.20;1.00;;;;;;5035799;28;20563;-71
2022/09/28 01:18:42;;;;;;;12.27;9.43;;;9.30;1.00;;;;;;5035474;28;20399;-71
2022/09/28 01:21:19;;;;;;;9.13;8.13;;;9.30;1.00;;;;;;5035396;28;20408;-70
2022/09/28 01:24:02;;;;;;;11.33;10.10;;;9.20;1.00;;;;;;5034552;28;20898;-69
2022/09/28 01:26:55;;;;;;;12.10;8.63;;;9.20;1.00;;;;;;5034605;28;20459;-71
2022/09/28 01:29:30;;;;;;;11.10;9.43;;;9.30;1.00;;;;;;5035216;28;20398;-71
2022/09/28 01:32:19;;;;;;;11.03;8.90;;;9.30;1.00;;;;;;5035322;28;20968;-71
2022/09/28 01:35:05;;;;;;;15.37;9.53;;;9.40;1.00;;;;;;5034492;28;20895;-71
2022/09/28 01:37:42;;;;;;;12.47;9.50;;;9.30;1.00;;;;;;5034967;28;20459;-71
2022/09/28 01:40:10;;;;;;;15.23;11.43;;;9.30;1.00;;;;;;5035041;28;20458;-68
2022/09/28 01:42:38;;;;;;;14.17;9.87;;;9.30;1.00;;;;;;5034437;28;20411;-68
2022/09/28 01:45:11;;;;;;;12.03;10.17;;;9.20;1.00;;;;;;5032888;28;20779;-74
2022/09/28 01:47:39;;;;;;;13.07;9.57;;;9.20;1.00;;;;;;5033753;28;20405;-68
2022/09/28 01:50:15;;;;;;;13.17;9.40;;;9.20;1.00;;;;;;5034890;28;20906;-72
2022/09/28 01:53:02;;;;;;;14.73;10.23;;;9.20;1.00;;;;;;5034952;28;20413;-69
2022/09/28 01:55:32;;;;;;;14.73;10.20;;;9.20;1.00;;;;;;5033963;28;20446;-71
2022/09/28 01:58:07;;;;;;;12.07;8.77;;;9.20;1.00;;;;;;5034288;28;20424;-70
2022/09/28 02:00:37;;;;;;;13.60;9.80;;;9.30;1.00;;;;;;5034498;28;20407;-68
2022/09/28 02:03:13;;;;;;;19.27;11.20;;;9.30;1.00;;;;;;5034558;28;20473;-69
2022/09/28 02:05:41;;;;;;;18.23;8.63;;;9.30;1.00;;;;;;5033766;28;20452;-69
2022/09/28 02:08:43;;;;;;;11.33;7.73;;;9.40;1.00;;;;;;5033931;28;20406;-70
2022/09/28 02:11:18;;;;;;;11.03;8.87;;;9.40;1.00;;;;;;5034489;28;20402;-68
2022/09/28 02:13:55;;;;;;;13.63;10.23;;;9.30;1.00;;;;;;5033690;28;20418;-72
2022/09/28 02:16:43;;;;;;;13.33;10.67;;;9.40;1.00;;;;;;5032499;28;20832;-68
2022/09/28 02:19:16;;;;;;;15.00;10.20;;;9.40;1.00;;;;;;5034226;28;21027;-71
2022/09/28 02:21:51;;;;;;;12.70;9.40;;;9.30;1.00;;;;;;5034223;28;20374;-70
2022/09/28 02:24:31;;;;;;;14.73;10.07;;;9.30;1.00;;;;;;5032312;28;20408;-72
2022/09/28 02:26:59;;;;;;;13.20;8.20;;;9.20;1.00;;;;;;5034032;28;20543;-68
2022/09/28 02:29:25;;;;;;;11.57;8.27;;;9.20;1.00;;;;;;5033998;28;20405;-71
2022/09/28 02:31:51;;;;;;;10.97;8.80;;;9.20;1.00;;;;;;5034043;28;20391;-72
2022/09/28 02:34:16;;;;;;;12.07;9.43;;;9.20;1.00;;;;;;5032697;28;20176;-68
2022/09/28 02:36:44;;;;;;;10.80;8.10;;;9.20;1.00;;;;;;5033929;28;20502;-69
2022/09/28 02:39:17;;;;;;;10.87;7.83;;;9.20;1.00;;;;;;5032762;28;20270;-68
2022/09/28 02:42:02;;;;;;;10.30;7.93;;;9.20;1.00;;;;;;5033768;28;20475;-68
2022/09/28 02:44:42;;;;;;;13.87;9.40;;;9.30;1.00;;;;;;5033121;28;20399;-68
2022/09/28 02:47:34;;;;;;;11.60;8.27;;;9.20;1.00;;;;;;5033727;28;20524;-68
2022/09/28 02:50:36;;;;;;;9.50;7.30;;;9.10;1.00;;;;;;5033667;28;20399;-74
2022/09/28 02:53:08;;;;;;;10.50;8.77;;;9.20;1.00;;;;;;5033400;28;20398;-68
2022/09/28 02:56:04;;;;;;;12.10;7.57;;;9.20;1.00;;;;;;5032930;28;20437;-71
2022/09/28 02:58:34;;;;;;;11.40;8.60;;;9.20;1.00;;;;;;5033626;28;20409;-68
2022/09/28 03:01:28;;;;;;;12.30;8.63;;;9.20;1.00;;;;;;5033568;28;20406;-71
2022/09/28 03:04:20;;;;;;;10.17;7.50;;;9.30;1.00;;;;;;5031555;28;20887;-70
2022/09/28 03:06:47;;;;;;;13.27;8.40;;;9.30;1.00;;;;;;5031914;28;21043;-72
2022/09/28 03:09:30;;;;;;;11.73;8.53;;;9.40;1.00;;;;;;5033503;28;20397;-68
2022/09/28 03:12:03;;;;;;;13.40;9.30;;;9.30;1.00;;;;;;5031960;28;20409;-67
2022/09/28 03:14:29;;;;;;;14.00;9.07;;;9.40;1.00;;;;;;5032717;28;20388;-68
2022/09/28 03:16:54;;;;;;;12.30;9.30;;;9.40;1.00;;;;;;5033128;28;20470;-68
2022/09/28 03:19:25;;;;;;;17.53;9.77;;;9.40;1.00;;;;;;5032584;28;20169;-72
2022/09/28 03:21:51;;;;;;;14.73;9.50;;;9.40;1.00;;;;;;5033358;28;20659;-67
2022/09/28 03:24:17;;;;;;;17.03;10.33;;;9.40;1.00;;;;;;5032495;28;20389;-71
2022/09/28 03:26:43;;;;;;;15.30;10.37;;;9.50;1.00;;;;;;5032924;28;20975;-68
2022/09/28 03:29:08;;;;;;;13.50;10.07;;;9.50;1.00;;;;;;5032636;28;20263;-72
2022/09/28 03:31:34;;;;;;;13.73;10.33;;;9.50;1.00;;;;;;5033185;28;20166;-71
2022/09/28 03:33:59;;;;;;;12.70;9.10;;;9.50;1.00;;;;;;5032500;28;20179;-71
2022/09/28 03:36:25;;;;;;;15.40;11.97;;;9.50;1.00;;;;;;5032876;28;20268;-68
2022/09/28 03:38:54;;;;;;;19.03;10.67;;;9.50;1.00;;;;;;5033051;28;20178;-68
2022/09/28 03:41:20;;;;;;;15.70;10.27;;;9.60;1.00;;;;;;5033154;28;20701;-71
2022/09/28 03:43:46;;;;;;;16.57;12.00;;;9.60;1.00;;;;;;5032355;28;20380;-71
2022/09/28 03:46:11;;;;;;;17.53;13.13;;;9.60;1.00;;;;;;5032817;28;20446;-68
2022/09/28 03:48:38;;;;;;;18.37;12.80;;;9.60;1.00;;;;;;5032304;28;20166;-72
2022/09/28 03:51:08;;;;;;;15.37;12.30;;;9.60;1.00;;;;;;5032946;28;20253;-67
2022/09/28 03:53:34;;;;;;;15.27;11.13;;;9.50;1.00;;;;;;5032669;28;20382;-67
2022/09/28 03:56:18;;;;;;;14.10;10.30;;;9.50;1.00;;;;;;5032443;28;20395;-71
2022/09/28 03:58:43;;;;;;;15.40;9.93;;;9.50;1.00;;;;;;5032810;28;20413;-71
2022/09/28 04:01:16;;;;;;;14.70;9.80;;;9.40;1.00;;;;;;5032918;28;20406;-73
2022/09/28 04:03:42;;;;;;;11.77;8.60;;;9.50;1.00;;;;;;5032124;28;20177;-68
2022/09/28 04:06:08;;;;;;;13.17;9.53;;;9.40;1.00;;;;;;5032084;28;20492;-68
2022/09/28 04:08:34;;;;;;;12.03;9.10;;;9.40;1.00;;;;;;5032857;28;20196;-68
2022/09/28 04:11:00;;;;;;;11.40;8.30;;;9.40;1.00;;;;;;5032745;28;20172;-67
2022/09/28 04:13:27;;;;;;;12.60;8.93;;;9.30;1.00;;;;;;5032379;28;20178;-71
2022/09/28 04:15:55;;;;;;;14.20;9.67;;;9.20;1.00;;;;;;5032288;28;20393;-71
2022/09/28 04:18:22;;;;;;;13.00;8.87;;;9.30;1.00;;;;;;5032644;28;20406;-67
2022/09/28 04:20:58;;;;;;;13.67;9.87;;;9.30;1.00;;;;;;5032602;28;20425;-70
2022/09/28 04:23:23;;;;;;;12.33;9.63;;;9.30;1.00;;;;;;5032007;28;20406;-71
2022/09/28 04:25:53;;;;;;;17.63;8.87;;;9.30;1.00;;;;;;5030721;28;20432;-69
2022/09/28 04:31:02;;;;;;;14.00;9.67;;;9.30;1.00;;;;;;5033448;28;20401;-67
2022/09/28 04:33:28;;;;;;;16.57;9.40;;;9.30;1.00;;;;;;5036143;28;20397;-72
2022/09/28 04:35:54;;;;;;;15.73;9.57;;;9.30;1.00;;;;;;5035838;28;20394;-67
2022/09/28 04:38:19;;;;;;;15.70;10.10;;;9.20;1.00;;;;;;5036215;28;20182;-68
2022/09/28 04:40:48;;;;;;;12.70;8.93;;;9.20;1.00;;;;;;5036109;28;20540;-71
2022/09/28 04:43:13;;;;;;;13.90;10.03;;;9.20;1.00;;;;;;5035657;28;20171;-67
2022/09/28 04:45:39;;;;;;;15.40;10.07;;;9.10;1.00;;;;;;5035259;28;20806;-68
2022/09/28 04:48:07;;;;;;;13.13;9.10;;;9.10;1.00;;;;;;5036029;28;20218;-71
2022/09/28 04:50:33;;;;;;;23.40;9.20;;;9.10;1.00;;;;;;5036054;28;20170;-67
2022/09/28 04:53:02;;;;;;;13.40;8.53;;;9.00;1.00;;;;;;5036009;28;20983;-68
2022/09/28 04:55:31;;;;;;;16.07;9.50;;;8.90;1.00;;;;;;5035117;28;20212;-71
2022/09/28 04:58:01;;;;;;;15.53;9.77;;;9.00;1.00;;;;;;5035945;28;20487;-68
2022/09/28 05:00:33;;;;;;;14.90;9.40;;;9.00;1.00;;;;;;5035284;28;20401;-67
2022/09/28 05:02:59;;;;;;;13.63;8.90;;;8.90;1.00;;;;;;5035591;28;20483;-68
2022/09/28 05:05:25;;;;;;;15.97;10.07;;;8.90;1.00;;;;;;5034779;28;20534;-71
2022/09/28 05:07:51;;;;;;;17.40;9.20;;;8.90;1.00;;;;;;5034444;28;20246;-71
2022/09/28 05:10:17;;;;;;;12.17;9.77;;;9.00;1.00;;;;;;5035616;28;20196;-68
2022/09/28 05:12:43;;;;;;;15.40;9.80;;;8.90;1.00;;;;;;5035646;28;20170;-70
2022/09/28 05:15:09;;;;;;;14.97;9.53;;;9.00;1.00;;;;;;5033811;28;21024;-70
2022/09/28 05:17:35;;;;;;;12.00;7.67;;;9.00;1.00;;;;;;5035343;28;20536;-68
2022/09/28 05:20:01;;;;;;;12.90;8.10;;;9.00;1.00;;;;;;5035314;28;20411;-71
2022/09/28 05:22:27;;;;;;;14.10;9.63;;;9.10;1.00;;;;;;5035455;28;20151;-67
2022/09/28 05:24:53;;;;;;;14.13;9.10;;;9.20;1.00;;;;;;5034678;28;20433;-71
2022/09/28 05:27:20;;;;;;;14.10;8.43;;;9.10;1.00;;;;;;5035277;28;20244;-71
2022/09/28 05:29:45;;;;;;;14.60;9.50;;;9.10;1.00;;;;;;5035283;28;20884;-70
2022/09/28 05:32:11;;;;;;;13.90;9.13;;;9.10;1.00;;;;;;5035264;28;20376;-70
2022/09/28 05:34:36;;;;;;;12.00;8.67;;;9.00;1.00;;;;;;5033489;28;20261;-69
2022/09/28 05:37:02;;;;;;;14.50;8.60;;;9.00;1.00;;;;;;5034540;28;20183;-70
2022/09/28 05:39:28;;;;;;;14.90;10.90;;;9.00;1.00;;;;;;5035040;28;20524;-68
2022/09/28 05:41:56;;;;;;;14.30;9.90;;;9.00;1.00;;;;;;5033605;28;20173;-71
2022/09/28 05:44:22;;;;;;;14.10;9.67;;;8.90;1.00;;;;;;5033766;28;20190;-68
2022/09/28 05:46:47;;;;;;;16.20;10.17;;;9.00;1.00;;;;;;5034760;28;20990;-68
2022/09/28 05:49:13;;;;;;;16.90;10.07;;;9.00;1.00;;;;;;5034896;28;20164;-71
2022/09/28 05:51:39;;;;;;;15.60;10.90;;;9.00;1.00;;;;;;5034711;28;20178;-70
2022/09/28 05:54:04;;;;;;;17.93;12.27;;;9.00;1.00;;;;;;5034163;28;20169;-70
2022/09/28 05:56:30;;;;;;;15.47;11.43;;;9.00;1.00;;;;;;5034472;28;20199;-67
2022/09/28 05:58:57;;;;;;;20.50;12.20;;;9.00;1.00;;;;;;5034678;28;20171;-70
2022/09/28 06:01:23;;;;;;;16.00;9.70;;;9.00;1.00;;;;;;5034706;28;20192;-68
2022/09/28 06:03:49;;;;;;;14.13;9.60;;;9.00;1.00;;;;;;5032712;28;20495;-69
2022/09/28 06:06:14;;;;;;;17.40;11.83;;;9.10;1.00;;;;;;5034386;28;20238;-70
2022/09/28 06:08:45;;;;;;;18.97;11.80;;;9.00;1.00;;;;;;5034667;28;20569;-67
2022/09/28 06:11:11;;;;;;;20.13;11.60;;;9.00;1.00;;;;;;5034556;28;20248;-70
2022/09/28 06:13:38;;;;;;;22.60;12.67;;;9.00;1.00;;;;;;5033426;28;20429;-71
2022/09/28 06:16:06;;;;;;;17.30;10.83;;;9.10;1.00;;;;;;5034268;28;20769;-68
2022/09/28 06:18:32;;;;;;;22.60;12.20;;;9.10;1.00;;;;;;5034376;28;20440;-68
2022/09/28 06:20:58;;;;;;;18.47;11.23;;;9.00;1.00;;;;;;5033264;28;20930;-68
2022/09/28 06:23:23;;;;;;;23.17;11.87;;;9.00;1.00;;;;;;5034134;28;20183;-71
2022/09/28 06:25:49;;;;;;;19.67;11.27;;;9.00;1.00;;;;;;5032186;28;20210;-69
2022/09/28 06:28:15;;;;;;;18.90;10.77;;;9.00;1.00;;;;;;5032864;28;20178;-68
2022/09/28 06:30:42;;;;;;;24.20;13.07;;;9.00;1.00;;;;;;5034239;28;20178;-72
2022/09/28 06:33:11;;;;;;;16.57;10.50;;;9.00;1.00;;;;;;5033431;28;20873;-68
2022/09/28 06:35:38;;;;;;;20.70;9.97;;;8.90;1.00;;;;;;5033241;28;20496;-68
2022/09/28 06:38:04;;;;;;;15.53;9.70;;;8.90;1.00;;;;;;5033891;28;20468;-68
2022/09/28 06:40:30;;;;;;;15.97;10.43;;;9.00;1.00;;;;;;5034138;28;20527;-68
2022/09/28 06:43:11;;;;;;;13.10;9.97;;;9.00;1.00;;;;;;5033835;28;20536;-67
2022/09/28 06:45:37;;;;;;;21.67;11.30;;;9.10;1.00;;;;;;5032928;28;20939;-70
2022/09/28 06:48:04;;;;;;;17.50;11.63;;;9.10;1.00;;;;;;5033661;28;20702;-69
2022/09/28 06:50:40;;;;;;;17.93;11.30;;;9.20;1.00;;;;;;5033800;28;20741;-71
2022/09/28 06:53:08;;;;;;;18.60;11.90;;;9.00;1.00;;;;;;5033113;28;20404;-72
2022/09/28 06:55:37;;;;;;;18.10;11.07;;;9.00;1.00;;;;;;5032801;28;20430;-70
2022/09/28 06:58:05;;;;;;;18.57;11.70;;;8.90;1.00;;;;;;5033414;28;20376;-69
2022/09/28 07:00:33;;;;;;;21.40;12.07;;;8.90;1.00;;;;;;5033738;28;20418;-67
2022/09/28 07:03:07;;;;;;;23.53;15.10;;;9.00;1.00;;;;;;5033497;28;20402;-67
2022/09/28 07:05:35;;;;;;;25.23;13.50;;;8.90;1.00;;;;;;5032693;28;20906;-67
2022/09/28 07:08:03;;;;;;;24.47;13.70;;;8.90;1.00;;;;;;5033493;28;20406;-71
2022/09/28 07:10:30;;;;;;;20.50;12.30;;;8.90;1.00;;;;;;5032804;28;20440;-71
2022/09/28 07:13:01;;;;;;;24.27;11.63;;;8.90;1.00;;;;;;5033379;28;20377;-71
2022/09/28 07:15:28;;;;;;;24.60;12.17;;;9.00;1.00;;;;;;5032555;28;20428;-71
2022/09/28 07:18:01;;;;;;;18.83;10.80;;;9.00;1.00;;;;;;5033558;28;20874;-67
2022/09/28 07:20:28;;;;;;;19.77;13.10;;;9.10;1.00;;;;;;5033222;28;20460;-71
2022/09/28 07:22:59;;;;;;;22.23;12.57;;;9.20;1.00;;;;;;5033217;28;20475;-72
2022/09/28 07:25:25;;;;;;;21.83;12.20;;;9.20;1.00;;;;;;5032418;28;20958;-69
2022/09/28 07:27:56;;;;;;;15.30;10.30;;;9.10;1.00;;;;;;5032319;28;20576;-70
2022/09/28 07:30:22;;;;;;;16.03;9.30;;;9.10;1.00;;;;;;5032418;28;20373;-70
2022/09/28 07:32:48;;;;;;;13.10;9.00;;;9.10;1.00;;;;;;5032982;28;20960;-71
2022/09/28 07:35:14;;;;;;;14.27;9.53;;;9.20;1.00;;;;;;5032506;28;20456;-67
2022/09/28 07:37:40;;;;;;;19.30;10.17;;;9.20;1.00;;;;;;5033065;28;20167;-69
2022/09/28 07:42:52;;;;;;;16.63;11.03;;;9.40;1.00;;;;;;5033314;28;20188;-67
2022/09/28 07:45:24;;;;;;;20.57;12.30;;;9.40;1.00;;;;;;5032288;28;20410;-73
2022/09/28 07:47:54;;;;;;;16.63;11.20;;;9.30;1.00;;;;;;5032489;28;20433;-70
2022/09/28 07:50:20;;;;;;;17.70;10.80;;;9.30;1.00;;;;;;5031555;28;20384;-67
2022/09/28 07:52:46;;;;;;;15.40;10.67;;;9.30;1.00;;;;;;5032762;28;20393;-71
2022/09/28 07:55:12;;;;;;;18.67;12.33;;;9.30;1.00;;;;;;5032448;28;20842;-67
2022/09/28 07:57:38;;;;;;;13.90;9.50;;;9.40;1.00;;;;;;5031538;28;20262;-68
2022/09/28 08:00:07;;;;;;;11.27;8.23;;;9.30;1.00;;;;;;5032897;28;20719;-70
2022/09/28 08:02:34;;;;;;;15.50;9.20;;;9.40;1.00;;;;;;5032729;28;20427;-68
2022/09/28 08:05:00;;;;;;;13.00;9.17;;;9.50;1.00;;;;;;5032099;28;20474;-70
2022/09/28 08:07:26;;;;;;;17.07;9.43;;;9.40;1.00;;;;;;5034200;28;20431;-70
2022/09/28 08:09:52;;;;;;;14.93;9.80;;;9.50;1.00;;;;;;5037024;28;20380;-67
2022/09/28 08:12:18;;;;;;;12.90;8.53;;;9.60;1.00;;;;;;5036736;28;20191;-67
2022/09/28 08:14:45;;;;;;;14.93;9.53;;;9.70;1.00;;;;;;5035895;28;20170;-70
2022/09/28 08:17:11;;;;;;;22.03;11.80;;;9.80;1.00;;;;;;5035394;28;20413;-69
2022/09/28 08:22:21;;;;;;;15.23;10.90;;;9.80;1.00;;;;;;5036349;28;20371;-71
2022/09/28 08:24:47;;;;;;;21.63;13.00;;;9.80;1.00;;;;;;5035151;28;20421;-68
2022/09/28 08:27:15;;;;;;;18.47;12.57;;;9.80;1.00;;;;;;5036555;28;20788;-70
2022/09/28 08:29:41;;;;;;;20.30;12.13;;;9.80;1.00;;;;;;5036362;28;20418;-68
2022/09/28 08:32:08;;;;;;;20.40;13.03;;;9.90;1.00;;;;;;5036300;28;20394;-68
2022/09/28 08:34:39;;;;;;;28.20;15.60;;;9.90;1.00;;;;;;5035614;28;20378;-69
2022/09/28 08:37:07;;;;;;;19.63;13.73;;;9.90;1.00;;;;;;5034953;28;20403;-69
2022/09/28 08:39:34;;;;;;;25.10;13.37;;;9.90;1.00;;;;;;5036113;28;20385;-71
2022/09/28 08:42:19;;;;;;;21.30;13.30;;;9.90;1.00;;;;;;5035726;28;20377;-70
2022/09/28 08:44:49;;;;;;;25.83;14.90;;;9.90;1.00;;;;;;5034073;28;20736;-70
2022/09/28 08:50:16;;;;;;;24.43;15.03;;;10.00;1.00;;;;;;5036266;28;20375;-70
2022/09/28 08:52:45;;;;;;;19.53;12.00;;;9.90;1.00;;;;;;5035924;28;20384;-69
2022/09/28 08:55:36;;;;;;;21.23;12.40;;;10.00;1.00;;;;;;5035223;28;20393;-71
2022/09/28 08:58:15;;;;;;;19.10;12.60;;;10.10;1.00;;;;;;5035327;28;20395;-72
2022/09/28 09:00:46;;;;;;;21.67;10.83;;;10.20;1.00;;;;;;5035805;28;20398;-70
2022/09/28 09:03:34;;;;;;;18.63;11.83;;;10.00;1.00;;;;;;5035543;28;20506;-71
2022/09/28 09:06:25;;;;;;;21.67;13.03;;;9.90;1.00;;;;;;5035683;28;20427;-67
2022/09/28 09:09:19;;;;;;;20.40;12.60;;;9.90;99.90;;;;;;5036102;28;20385;-70
2022/09/28 09:12:02;;;;;;;20.87;13.40;;;9.90;99.90;;;;;;5035954;28;20390;-67
2022/09/28 09:14:48;;;;;;;21.93;14.00;;;9.90;99.90;;;;;;5035400;28;20373;-70
2022/09/28 09:17:32;;;;;;;19.43;13.53;;;9.90;1.00;;;;;;5034276;28;20412;-68
2022/09/28 09:20:42;;;;;;;20.20;12.57;;;9.90;1.00;;;;;;5035933;28;20391;-71
2022/09/28 09:23:33;;;;;;;20.13;12.80;;;9.90;1.00;;;;;;5033648;28;20387;-68
2022/09/28 09:26:17;;;;;;;25.13;13.67;;;10.00;1.00;;;;;;5033806;28;20873;-71
2022/09/28 09:29:04;;;;;;;19.73;12.70;;;10.00;1.00;;;;;;5035778;28;20398;-70
2022/09/28 09:32:08;;;;;;;20.97;13.17;;;10.00;1.00;;;;;;5035611;28;20384;-67
2022/09/28 09:34:58;;;;;;;17.83;11.10;;;10.10;1.00;;;;;;5034453;28;20417;-67
2022/09/28 09:37:34;;;;;;;21.77;13.70;;;10.20;1.00;;;;;;5034965;28;20442;-68
2022/09/28 09:40:40;;;;;;;20.07;12.10;;;10.20;99.90;;;;;;5035500;28;20384;-67
2022/09/28 09:43:27;;;;;;;19.00;13.83;;;10.40;99.90;;;;;;5035427;28;20406;-68
2022/09/28 09:46:18;;;;;;;22.27;13.67;;;10.50;99.90;;;;;;5034728;28;20450;-69
2022/09/28 09:48:53;;;;;;;21.17;14.30;;;10.50;99.90;;;;;;5034979;28;20795;-69
2022/09/28 09:51:42;;;;;;;19.40;12.57;;;10.50;99.90;;;;;;5035158;28;20456;-70
2022/09/28 09:54:19;;;;;;;16.83;11.63;;;10.50;99.90;;;;;;5033664;28;20442;-67
2022/09/28 09:57:02;;;;;;;19.00;12.87;;;10.40;99.90;;;;;;5034866;28;20404;-70
2022/09/28 09:59:35;;;;;;;17.97;12.20;;;10.40;99.90;;;;;;5033675;28;20431;-66
2022/09/28 10:02:11;;;;;;;18.77;11.90;;;10.50;99.90;;;;;;5033702;28;20405;-66
2022/09/28 10:04:43;;;;;;;15.90;11.10;;;10.70;99.90;;;;;;5034238;28;20761;-70
2022/09/28 10:07:23;;;;;;;27.23;12.33;;;10.80;99.90;;;;;;5034843;28;20449;-69
2022/09/28 10:09:51;;;;;;;18.83;12.40;;;10.80;99.90;;;;;;5034714;28;20373;-66
2022/09/28 10:12:19;;;;;;;21.40;12.50;;;10.80;99.90;;;;;;5034425;28;20391;-69
2022/09/28 10:14:45;;;;;;;16.73;12.00;;;10.90;99.90;;;;;;5034457;28;20373;-69
2022/09/28 10:17:15;;;;;;;20.27;12.43;;;10.80;99.90;;;;;;5034889;28;20373;-69
2022/09/28 10:19:41;;;;;;;17.03;12.80;;;10.90;99.90;;;;;;5034714;28;20201;-67
2022/09/28 10:22:15;;;;;;;21.63;13.13;;;11.00;99.90;;;;;;5033454;28;20468;-68
2022/09/28 10:24:44;;;;;;;16.87;12.13;;;10.90;99.90;;;;;;5034024;28;20781;-67
2022/09/28 10:27:22;;;;;;;18.23;12.17;;;10.80;99.90;;;;;;5034541;28;20511;-69
2022/09/28 10:29:53;;;;;;;15.10;11.03;;;10.80;99.90;;;;;;5033502;28;20372;-70
2022/09/28 10:32:25;;;;;;;15.63;11.40;;;10.80;99.90;;;;;;5034491;28;20381;-67
2022/09/28 10:34:51;;;;;;;22.73;12.63;;;10.90;99.90;;;;;;5033701;28;20422;-69
2022/09/28 10:37:18;;;;;;;16.50;12.90;;;10.90;99.90;;;;;;5034448;28;20361;-70
2022/09/28 10:39:54;;;;;;;21.33;13.50;;;11.00;99.90;;;;;;5034250;28;20429;-66
2022/09/28 10:42:25;;;;;;;18.03;12.87;;;11.10;99.90;;;;;;5034322;28;20393;-69
2022/09/28 10:45:10;;;;;;;24.10;15.07;;;11.20;99.90;;;;;;5033566;28;20401;-66
2022/09/28 10:47:36;;;;;;;18.97;13.73;;;11.30;99.90;;;;;;5033687;28;20824;-66
2022/09/28 10:50:02;;;;;;;17.37;12.80;;;11.30;99.90;;;;;;5034038;28;20403;-70
2022/09/28 10:52:33;;;;;;;16.17;12.37;;;11.30;99.90;;;;;;5034234;28;20402;-66
2022/09/28 10:55:00;;;;;;;21.50;13.17;;;11.40;99.90;;;;;;5033313;28;20183;-66
2022/09/28 10:57:33;;;;;;;17.27;12.50;;;11.40;99.90;;;;;;5034038;28;20373;-70
2022/09/28 10:59:59;;;;;;;16.30;10.83;;;11.50;99.90;;;;;;5033838;28;20381;-66
2022/09/28 11:02:34;;;;;;;17.47;13.90;;;11.60;99.90;;;;;;5033710;28;20435;-70
2022/09/28 11:05:03;;;;;;;16.93;12.00;;;11.50;99.90;;;;;;5032884;28;20179;-70
2022/09/28 11:07:31;;;;;;;18.03;13.17;;;11.50;99.90;;;;;;5032495;28;20474;-70
2022/09/28 11:10:00;;;;;;;15.60;12.43;;;11.50;99.90;;;;;;5033850;28;20480;-70
2022/09/28 11:12:41;;;;;;;16.40;11.83;;;11.60;99.90;;;;;;5033672;28;20373;-65
2022/09/28 11:15:16;;;;;;;13.57;12.20;;;11.60;99.90;;;;;;5033070;28;20501;-68
2022/09/28 11:17:43;;;;;;;26.30;12.77;;;11.60;99.90;;;;;;5033876;28;20368;-64
2022/09/28 11:20:23;;;;;;;16.43;11.97;;;11.50;99.90;;;;;;5033474;28;20380;-66
2022/09/28 11:22:54;;;;;;;14.93;12.20;;;11.40;99.90;;;;;;5033418;28;20373;-65
2022/09/28 11:25:22;;;;;;;18.93;13.73;;;11.50;99.90;;;;;;5032910;28;20885;-71
2022/09/28 11:27:50;;;;;;;21.33;14.20;;;11.50;99.90;;;;;;5033466;28;20401;-65
2022/09/28 11:30:19;;;;;;;16.57;13.83;;;11.50;99.90;;;;;;5033433;28;20424;-65
2022/09/28 11:32:46;;;;;;;13.20;11.70;;;11.50;99.90;;;;;;5032489;28;20416;-66
2022/09/28 11:35:22;;;;;;;14.40;12.27;;;11.60;99.90;;;;;;5032654;28;20436;-69
2022/09/28 11:38:20;;;;;;;19.13;13.90;;;11.70;99.90;;;;;;5033186;28;20420;-66
2022/09/28 11:41:01;;;;;;;14.33;12.20;;;11.60;99.90;;;;;;5032710;28;20387;-70
2022/09/28 11:43:51;;;;;;;18.83;13.70;;;11.50;99.90;;;;;;5033111;28;20435;-69
2022/09/28 11:46:50;;;;;;;16.20;12.20;;;11.50;99.90;;;;;;5033079;28;20432;-71
2022/09/28 11:49:19;;;;;;;18.60;13.80;;;11.70;99.90;;;;;;5033428;28;20389;-64
2022/09/28 11:51:47;;;;;;;16.83;13.57;;;11.90;99.90;;;;;;5033246;28;20414;-70
2022/09/28 11:54:32;;;;;;;16.73;13.00;;;11.90;99.90;;;;;;5032586;28;20373;-68
2022/09/28 11:57:02;;;;;;;14.60;11.30;;;12.10;99.90;;;;;;5032924;28;20414;-68
2022/09/28 11:59:53;;;;;;;16.17;12.70;;;12.10;99.90;;;;;;5033306;28;20805;-64
2022/09/28 12:02:25;;;;;;;13.67;10.80;;;12.20;99.90;;;;;;5032481;28;20457;-68
2022/09/28 12:04:58;;;;;;;12.73;11.27;;;12.20;99.90;;;;;;5032373;28;20452;-68
2022/09/28 12:07:26;;;;;;;14.63;11.13;;;12.20;99.90;;;;;;5033003;28;20811;-64
2022/09/28 12:10:13;;;;;;;14.93;12.50;;;12.00;99.90;;;;;;5033056;28;20953;-64
2022/09/28 12:12:46;;;;;;;14.40;11.13;;;12.00;99.90;;;;;;5032851;28;20455;-67
2022/09/28 12:15:18;;;;;;;13.67;11.43;;;12.00;99.90;;;;;;5032002;28;20465;-64
2022/09/28 12:18:13;;;;;;;12.07;10.20;;;12.00;99.90;;;;;;5033106;28;20373;-64
2022/09/28 12:20:47;;;;;;;14.17;12.33;;;12.00;99.90;;;;;;5033074;28;20385;-66
2022/09/28 12:23:15;;;;;;;12.40;10.53;;;12.10;99.90;;;;;;5033010;28;20435;-69
2022/09/28 12:25:56;;;;;;;15.90;9.87;;;12.10;99.90;;;;;;5032239;28;20461;-64
2022/09/28 12:28:42;;;;;;;12.60;10.30;;;12.20;99.90;;;;;;5033066;28;20395;-66
2022/09/28 12:31:20;;;;;;;14.93;10.53;;;12.20;99.90;;;;;;5033072;28;20887;-69
2022/09/28 12:33:49;;;;;;;13.47;11.30;;;12.30;99.90;;;;;;5031925;28;20425;-69
2022/09/28 12:36:15;;;;;;;17.43;11.60;;;12.40;99.90;;;;;;5032840;28;20472;-64
2022/09/28 12:39:07;;;;;;;17.30;12.30;;;12.50;99.90;;;;;;5032873;28;20887;-64
2022/09/28 12:41:38;;;;;;;14.13;11.47;;;12.50;99.90;;;;;;5032927;28;20187;-69
2022/09/28 12:44:07;;;;;;;15.40;12.63;;;12.70;99.90;;;;;;5032257;28;20393;-69
2022/09/28 12:46:57;;;;;;;11.73;9.70;;;12.80;99.90;;;;;;5032692;28;20460;-65
2022/09/28 12:49:47;;;;;;;13.33;10.43;;;12.90;99.90;;;;;;5032948;28;20395;-64
2022/09/28 12:52:37;;;;;;;13.70;11.00;;;13.00;99.90;;;;;;5033388;28;20977;-68
2022/09/28 12:55:34;;;;;;;14.57;10.97;;;13.10;99.90;;;;;;5035512;28;20484;-69
2022/09/28 12:58:24;;;;;;;13.90;10.10;;;13.10;99.90;;;;;;5036355;28;20826;-64
2022/09/28 13:01:28;;;;;;;10.90;9.77;;;12.90;93.50;;;;;;5036117;28;20410;-65
2022/09/28 13:04:21;;;;;;;15.13;12.40;;;12.80;94.40;;;;;;5033224;28;20437;-69
2022/09/28 13:06:50;;;;;;;18.23;12.37;;;12.90;98.70;;;;;;5035715;28;20443;-65
2022/09/28 13:09:27;;;;;;;14.60;12.40;;;13.40;99.90;;;;;;5035838;28;20398;-65
2022/09/28 13:12:11;;;;;;;12.93;10.77;;;14.40;99.90;;;;;;5035773;28;20394;-69
2022/09/28 13:15:15;;;;;;;10.97;9.87;;;15.40;93.80;;;;;;5035239;28;20406;-69
2022/09/28 13:18:07;;;;;;;15.20;10.33;;;15.50;35.70;;;;;;5035941;28;20452;-70
2022/09/28 13:20:45;;;;;;;10.77;9.60;;;15.50;51.10;;;;;;5035957;28;20423;-69
2022/09/28 13:23:22;;;;;;;11.27;10.17;;;15.70;46.70;;;;;;5035656;28;20815;-70
2022/09/28 13:26:13;;;;;;;14.13;9.33;;;16.00;19.40;;;;;;5035052;28;20457;-65